createdAt,value
2019-05-29T00:00:49.812Z,11.73
2019-05-29T00:03:38.267Z,11.75
2019-05-29T00:06:27.037Z,11.65
2019-05-29T00:09:15.953Z,11.70
2019-05-29T00:12:04.046Z,12.50
2019-05-29T00:14:52.122Z,11.45
2019-05-29T00:17:40.304Z,10.40
2019-05-29T00:20:29.483Z,11.18
2019-05-29T00:23:18.811Z,11.55
2019-05-29T00:26:08.284Z,11.00
2019-05-29T00:28:57.387Z,9.30
2019-05-29T00:31:45.354Z,10.50
2019-05-29T00:34:34.156Z,11.22
2019-05-29T00:37:22.994Z,11.28
2019-05-29T00:40:12.971Z,10.43
2019-05-29T00:43:01.671Z,10.90
2019-05-29T00:45:50.710Z,10.00
2019-05-29T00:48:39.695Z,9.00
2019-05-29T00:51:27.579Z,10.48
2019-05-29T00:54:16.547Z,10.25
2019-05-29T00:57:05.523Z,9.33
2019-05-29T00:59:53.483Z,9.75
2019-05-29T01:02:41.725Z,9.40
2019-05-29T01:05:30.671Z,9.15
2019-05-29T01:08:20.453Z,9.20
2019-05-29T01:11:09.204Z,8.75
2019-05-29T01:13:58.362Z,9.55
2019-05-29T01:16:47.134Z,9.55
2019-05-29T01:19:35.993Z,9.05
2019-05-29T01:22:24.762Z,10.13
2019-05-29T01:25:14.429Z,9.50
2019-05-29T01:28:03.181Z,8.50
2019-05-29T01:30:51.656Z,8.10
2019-05-29T01:33:40.986Z,8.28
2019-05-29T01:36:29.119Z,9.40
2019-05-29T01:39:17.442Z,10.70
2019-05-29T01:42:05.645Z,9.45
2019-05-29T01:45:07.009Z,8.78
2019-05-29T01:47:44.216Z,9.45
2019-05-29T01:50:32.577Z,11.12
2019-05-29T01:53:21.756Z,10.58
2019-05-29T01:56:10.222Z,10.58
2019-05-29T01:58:58.869Z,12.25
2019-05-29T02:01:47.435Z,13.18
2019-05-29T02:04:35.624Z,11.88
2019-05-29T02:07:24.038Z,10.65
2019-05-29T02:10:12.782Z,12.63
2019-05-29T02:13:01.551Z,14.23
2019-05-29T02:15:50.283Z,14.20
2019-05-29T02:18:38.935Z,13.10
2019-05-29T02:21:28.407Z,14.75
2019-05-29T02:24:17.342Z,14.63
2019-05-29T02:27:05.727Z,14.25
2019-05-29T02:29:54.526Z,14.60
2019-05-29T02:32:42.764Z,17.75
2019-05-29T02:35:31.379Z,17.82
2019-05-29T02:38:20.503Z,15.58
2019-05-29T02:41:09.538Z,16.70
2019-05-29T02:43:58.354Z,18.02
2019-05-29T02:46:46.618Z,18.23
2019-05-29T02:49:34.875Z,19.62
2019-05-29T02:52:24.289Z,17.75
2019-05-29T02:55:12.891Z,18.32
2019-05-29T02:58:01.434Z,19.70
2019-05-29T03:00:54.618Z,18.45
2019-05-29T03:03:43.850Z,19.25
2019-05-29T03:06:32.844Z,18.60
2019-05-29T03:09:22.654Z,17.65
2019-05-29T03:12:10.513Z,19.75
2019-05-29T03:14:59.027Z,20.45
2019-05-29T03:17:47.390Z,22.32
2019-05-29T03:20:35.719Z,19.55
2019-05-29T03:23:24.197Z,19.17
2019-05-29T03:26:12.422Z,23.00
2019-05-29T03:29:01.445Z,23.83
2019-05-29T03:31:50.288Z,22.20
2019-05-29T03:34:45.797Z,21.55
2019-05-29T03:37:30.372Z,22.42
2019-05-29T03:40:18.871Z,23.67
2019-05-29T03:43:06.939Z,25.85
2019-05-29T03:45:55.230Z,27.90
2019-05-29T03:48:44.137Z,26.45
2019-05-29T03:51:34.729Z,26.60
2019-05-29T03:54:22.451Z,27.35
2019-05-29T03:57:10.915Z,24.70
2019-05-29T03:59:59.682Z,25.40
2019-05-29T04:02:48.261Z,27.17
2019-05-29T04:05:37.962Z,29.10
2019-05-29T04:08:27.478Z,27.75
2019-05-29T04:11:16.203Z,26.15
2019-05-29T04:14:04.542Z,26.00
2019-05-29T04:16:59.664Z,25.15
2019-05-29T04:19:44.299Z,28.25
2019-05-29T04:22:36.944Z,28.15
2019-05-29T04:25:30.098Z,31.50
2019-05-29T04:28:16.866Z,29.42
2019-05-29T04:31:04.895Z,31.02
2019-05-29T04:33:52.958Z,31.77
2019-05-29T04:36:41.495Z,29.40
2019-05-29T04:39:30.609Z,30.43
2019-05-29T04:42:19.227Z,27.90
2019-05-29T04:45:08.473Z,29.15
2019-05-29T04:47:56.535Z,29.45
2019-05-29T04:50:45.119Z,30.57
2019-05-29T04:53:35.366Z,29.65
2019-05-29T04:56:24.526Z,28.35
2019-05-29T04:59:13.485Z,30.55
2019-05-29T05:02:01.630Z,29.23
2019-05-29T05:04:51.218Z,29.85
2019-05-29T05:07:39.668Z,30.52
2019-05-29T05:10:37.796Z,33.90
2019-05-29T05:13:26.334Z,31.17
2019-05-29T05:16:15.064Z,32.88
2019-05-29T05:19:03.791Z,32.03
2019-05-29T05:21:52.448Z,28.90
2019-05-29T05:24:43.767Z,30.70
2019-05-29T05:27:30.542Z,33.90
2019-05-29T05:30:18.886Z,28.77
2019-05-29T05:33:07.266Z,28.35
2019-05-29T05:35:55.726Z,29.10
2019-05-29T05:38:44.306Z,28.20
2019-05-29T05:41:32.829Z,32.73
2019-05-29T05:44:21.774Z,30.82
2019-05-29T05:47:09.915Z,30.27
2019-05-29T05:49:58.347Z,29.50
2019-05-29T05:52:47.123Z,30.08
2019-05-29T05:55:35.652Z,31.52
2019-05-29T05:58:24.126Z,31.87
2019-05-29T06:01:12.395Z,32.00
2019-05-29T06:04:01.218Z,32.20
2019-05-29T06:06:49.556Z,32.45
2019-05-29T06:09:38.175Z,32.55
2019-05-29T06:12:26.808Z,31.57
2019-05-29T06:15:15.494Z,36.45
2019-05-29T06:18:19.973Z,31.07
2019-05-29T06:20:53.328Z,34.00
2019-05-29T06:23:41.400Z,30.75
2019-05-29T06:26:29.339Z,34.15
2019-05-29T06:29:17.622Z,33.30
2019-05-29T06:32:06.124Z,31.37
2019-05-29T06:34:54.622Z,35.28
2019-05-29T06:37:43.770Z,35.17
2019-05-29T06:40:36.235Z,35.13
2019-05-29T06:43:26.173Z,37.67
2019-05-29T06:46:14.914Z,35.60
2019-05-29T06:49:03.294Z,34.18
2019-05-29T06:51:51.410Z,34.88
2019-05-29T06:54:40.094Z,33.78
2019-05-29T06:57:27.891Z,33.53
2019-05-29T07:00:34.106Z,35.08
2019-05-29T07:03:05.839Z,34.63
2019-05-29T07:05:55.758Z,36.08
2019-05-29T07:08:48.084Z,37.28
2019-05-29T07:11:34.047Z,39.63
2019-05-29T07:14:22.647Z,32.98
2019-05-29T07:17:12.159Z,39.92
2019-05-29T07:20:03.717Z,36.45
2019-05-29T07:22:49.909Z,34.33
2019-05-29T07:25:38.786Z,34.95
2019-05-29T07:28:28.252Z,36.08
2019-05-29T07:31:17.387Z,30.77
2019-05-29T07:34:06.263Z,38.92
2019-05-29T07:40:55.167Z,33.23
2019-05-29T07:43:43.834Z,32.40
2019-05-29T07:46:33.495Z,35.43
2019-05-29T07:49:38.118Z,34.43
2019-05-29T07:52:12.297Z,32.20
2019-05-29T07:55:00.026Z,38.33
2019-05-29T07:57:48.949Z,29.27
2019-05-29T08:01:02.651Z,30.52
2019-05-29T08:03:27.940Z,30.70
2019-05-29T08:09:49.897Z,30.70
2019-05-29T08:12:43.913Z,30.65
2019-05-29T08:15:28.111Z,30.65
2019-05-29T08:18:16.936Z,31.90
2019-05-29T08:21:05.495Z,29.27
2019-05-29T08:23:55.967Z,31.00
2019-05-29T08:26:44.929Z,33.25
2019-05-29T08:29:36.083Z,28.07
2019-05-29T08:32:24.719Z,32.03
2019-05-29T08:35:13.232Z,34.73
2019-05-29T08:38:01.547Z,30.62
2019-05-29T08:40:49.703Z,31.12
2019-05-29T08:43:38.005Z,31.48
2019-05-29T08:46:28.423Z,33.90
2019-05-29T08:49:17.414Z,31.68
2019-05-29T08:52:11.885Z,31.93
2019-05-29T08:54:55.333Z,30.68
2019-05-29T08:57:44.372Z,28.47
2019-05-29T09:00:36.936Z,25.40
2019-05-29T09:03:24.916Z,27.67
2019-05-29T09:06:16.121Z,26.85
2019-05-29T09:09:08.087Z,30.68
2019-05-29T09:11:59.780Z,29.30
2019-05-29T09:14:50.196Z,29.37
2019-05-29T09:17:52.686Z,27.32
2019-05-29T09:21:00.856Z,31.73
2019-05-29T09:23:29.018Z,29.10
2019-05-29T09:26:26.171Z,26.05
2019-05-29T09:29:17.751Z,28.30
2019-05-29T09:32:04.271Z,24.87
2019-05-29T09:34:53.104Z,23.10
2019-05-29T09:37:41.738Z,26.27
2019-05-29T09:40:30.239Z,26.45
2019-05-29T09:43:30.278Z,22.93
2019-05-29T09:46:18.814Z,25.48
2019-05-29T09:49:06.165Z,26.15
2019-05-29T09:51:56.056Z,25.55
2019-05-29T09:54:44.774Z,23.32
2019-05-29T09:57:33.685Z,22.27
2019-05-29T10:00:24.037Z,23.45
2019-05-29T10:03:12.848Z,28.60
2019-05-29T10:06:04.255Z,22.50
2019-05-29T10:08:56.042Z,20.90
2019-05-29T10:11:47.335Z,22.45
2019-05-29T10:14:46.398Z,20.60
2019-05-29T10:17:34.751Z,22.10
2019-05-29T10:20:23.201Z,20.85
2019-05-29T10:23:14.133Z,22.05
2019-05-29T10:26:04.647Z,22.30
2019-05-29T10:39:29.462Z,18.70
2019-05-29T10:42:15.952Z,19.60
2019-05-29T10:45:09.246Z,20.12
2019-05-29T10:47:57.871Z,22.65
2019-05-29T10:50:49.421Z,21.90
2019-05-29T10:53:36.112Z,21.02
2019-05-29T10:56:28.029Z,20.85
2019-05-29T10:59:16.574Z,21.35
2019-05-29T11:02:05.542Z,17.48
2019-05-29T11:04:56.724Z,17.17
2019-05-29T11:07:43.441Z,18.62
2019-05-29T11:10:32.075Z,15.08
2019-05-29T11:13:20.663Z,14.60
2019-05-29T11:16:09.926Z,15.75
2019-05-29T11:18:58.236Z,15.72
2019-05-29T11:21:48.118Z,13.10
2019-05-29T11:24:37.335Z,12.10
2019-05-29T11:27:26.277Z,10.03
2019-05-29T11:30:16.332Z,11.00
2019-05-29T11:33:10.043Z,11.70
2019-05-29T11:36:09.458Z,9.30
2019-05-29T11:38:47.014Z,11.25
2019-05-29T11:41:35.282Z,12.00
2019-05-29T11:44:26.357Z,10.80
2019-05-29T11:47:15.068Z,10.35
2019-05-29T11:50:18.723Z,12.82
2019-05-29T11:52:58.559Z,14.45
2019-05-29T11:55:47.094Z,15.55
2019-05-29T11:58:36.067Z,15.90
2019-05-29T12:01:49.114Z,13.32
2019-05-29T12:04:27.476Z,14.65
2019-05-29T12:07:17.452Z,17.90
2019-05-29T12:10:08.126Z,16.35
2019-05-29T12:12:57.541Z,9.93
2019-05-29T12:15:46.228Z,11.57
2019-05-29T12:18:35.095Z,10.03
2019-05-29T12:21:23.485Z,8.75
2019-05-29T12:24:11.333Z,8.43
2019-05-29T12:27:00.623Z,8.00
2019-05-29T12:29:49.155Z,8.60
2019-05-29T12:32:37.352Z,8.13
2019-05-29T12:35:26.079Z,8.73
2019-05-29T12:38:14.471Z,7.62
2019-05-29T12:41:03.812Z,8.08
2019-05-29T12:43:53.247Z,7.90
2019-05-29T12:46:42.083Z,7.90
2019-05-29T12:49:30.150Z,8.88
2019-05-29T12:52:18.695Z,9.58
2019-05-29T12:55:08.197Z,9.28
2019-05-29T12:57:58.023Z,10.05
2019-05-29T13:00:46.964Z,9.78
2019-05-29T13:03:35.405Z,9.80
2019-05-29T13:06:23.888Z,10.10
2019-05-29T13:09:12.140Z,9.05
2019-05-29T13:12:00.707Z,11.10
2019-05-29T13:14:49.541Z,10.15
2019-05-29T13:17:40.650Z,9.75
2019-05-29T13:20:28.912Z,9.50
2019-05-29T13:23:17.394Z,11.95
2019-05-29T13:26:05.750Z,10.28
2019-05-29T13:28:55.761Z,10.23
2019-05-29T13:31:44.795Z,10.28
2019-05-29T13:34:33.488Z,12.23
2019-05-29T13:37:22.556Z,16.75
2019-05-29T13:40:19.681Z,12.03
2019-05-29T13:43:15.061Z,12.23
2019-05-29T13:45:58.451Z,11.22
2019-05-29T13:48:53.404Z,11.75
2019-05-29T13:51:41.360Z,12.18
2019-05-29T13:54:38.776Z,14.43
2019-05-29T13:57:40.009Z,11.18
2019-05-29T14:00:38.655Z,12.73
2019-05-29T14:06:41.331Z,11.38
2019-05-29T14:09:37.625Z,12.88
2019-05-29T14:12:30.366Z,12.13
2019-05-29T14:15:18.661Z,13.58
2019-05-29T14:18:14.153Z,11.83
2019-05-29T14:21:05.123Z,10.10
2019-05-29T14:23:53.702Z,11.75
2019-05-29T14:26:42.728Z,12.93
2019-05-29T14:29:37.842Z,9.88
2019-05-29T14:32:28.548Z,9.38
2019-05-29T14:35:20.601Z,11.43
2019-05-29T14:38:11.589Z,10.98
2019-05-29T14:41:12.159Z,9.10
2019-05-29T14:44:07.809Z,7.78
2019-05-29T14:46:59.422Z,8.28
2019-05-29T14:49:48.333Z,9.88
2019-05-29T14:52:38.034Z,9.90
2019-05-29T14:55:28.964Z,9.60
2019-05-29T14:58:19.234Z,10.23
2019-05-29T15:01:14.170Z,9.08
2019-05-29T15:04:03.896Z,8.73
2019-05-29T15:06:55.889Z,8.60
2019-05-29T15:09:51.880Z,8.08
2019-05-29T15:16:30.878Z,9.53
2019-05-29T15:19:23.803Z,9.10
2019-05-29T15:22:38.703Z,8.18
2019-05-29T15:25:33.702Z,8.65
2019-05-29T15:28:34.558Z,10.00
2019-05-29T15:31:28.071Z,9.55
2019-05-29T15:34:19.180Z,10.72
2019-05-29T15:37:12.202Z,10.18
2019-05-29T15:40:00.776Z,9.23
2019-05-29T15:42:54.051Z,9.25
2019-05-29T15:45:49.273Z,8.93
2019-05-29T15:49:06.845Z,9.73
2019-05-29T15:52:03.106Z,9.18
2019-05-29T15:55:20.090Z,8.83
2019-05-29T15:57:56.636Z,11.30
2019-05-29T16:01:09.652Z,11.05
2019-05-29T16:04:09.616Z,10.53
2019-05-29T16:07:10.007Z,9.73
2019-05-29T16:10:04.835Z,10.72
2019-05-29T16:12:59.473Z,14.90
2019-05-29T16:15:49.909Z,13.60
2019-05-29T16:18:40.702Z,12.13
2019-05-29T16:21:30.430Z,13.15
2019-05-29T16:24:23.027Z,13.08
2019-05-29T16:27:14.294Z,14.68
2019-05-29T16:30:04.033Z,13.68
2019-05-29T16:32:53.837Z,15.10
2019-05-29T16:35:45.068Z,15.60
2019-05-29T16:38:48.076Z,17.15
2019-05-29T16:41:54.724Z,13.38
2019-05-29T16:44:55.595Z,16.67
2019-05-29T16:47:59.724Z,15.25
2019-05-29T16:50:53.104Z,15.45
2019-05-29T16:56:34.693Z,18.55
2019-05-29T16:59:29.907Z,16.62
2019-05-29T17:02:19.674Z,17.92
2019-05-29T17:05:20.540Z,21.33
2019-05-29T17:08:26.818Z,16.93
2019-05-29T17:12:36.149Z,20.95
2019-05-29T17:14:57.557Z,19.60
2019-05-29T17:18:05.658Z,19.32
2019-05-29T17:21:06.505Z,19.85
2019-05-29T17:27:34.462Z,18.45
2019-05-29T17:30:41.712Z,18.15
2019-05-29T17:33:52.171Z,20.23
2019-05-29T17:37:07.526Z,19.23
2019-05-29T17:43:12.079Z,22.73
2019-05-29T17:53:26.172Z,23.32
2019-05-29T18:10:02.348Z,23.40
2019-05-29T18:13:01.376Z,26.52
2019-05-29T18:15:49.864Z,25.35
2019-05-29T18:18:40.083Z,24.35
2019-05-29T18:21:31.382Z,23.12
2019-05-29T18:24:26.093Z,23.83
2019-05-29T18:27:23.869Z,24.47
2019-05-29T18:33:54.382Z,24.80
2019-05-29T18:36:49.193Z,23.25
2019-05-29T18:39:48.737Z,25.82
2019-05-29T18:46:27.272Z,22.65
2019-05-29T18:49:22.167Z,23.92
2019-05-29T18:52:18.966Z,22.67
2019-05-29T18:55:21.160Z,30.55
2019-05-29T19:04:31.862Z,26.27
2019-05-29T19:07:21.561Z,27.93
2019-05-29T19:10:14.071Z,25.20
2019-05-29T19:13:14.509Z,27.02
2019-05-29T19:16:13.869Z,27.95
2019-05-29T19:19:36.383Z,27.42
2019-05-29T19:22:34.645Z,29.70
2019-05-29T19:25:29.208Z,27.37
2019-05-29T19:28:21.020Z,28.62
2019-05-29T19:34:49.945Z,33.95
2019-05-29T19:37:45.872Z,30.48
2019-05-29T19:40:34.572Z,26.95
2019-05-29T19:43:24.190Z,27.42
2019-05-29T19:46:14.580Z,33.65
2019-05-29T19:49:07.171Z,27.77
2019-05-29T19:51:57.055Z,33.85
2019-05-29T19:55:22.471Z,33.42
2019-05-29T19:58:13.127Z,43.45
2019-05-29T20:01:03.206Z,26.45
2019-05-29T20:03:50.626Z,55.60
2019-05-29T20:06:39.229Z,41.60
2019-05-29T20:09:31.240Z,33.78
2019-05-29T20:12:20.087Z,55.10
2019-05-29T20:15:09.376Z,49.53
2019-05-29T20:17:58.993Z,63.33
2019-05-29T20:20:47.196Z,49.90
2019-05-29T20:23:36.773Z,56.25
2019-05-29T20:26:27.475Z,51.92
2019-05-29T20:29:15.634Z,59.98
2019-05-29T20:32:05.441Z,50.00
2019-05-29T20:34:53.800Z,46.25
2019-05-29T20:37:42.417Z,51.50
2019-05-29T20:40:33.034Z,50.58
2019-05-29T20:43:21.668Z,43.28
2019-05-29T20:46:10.423Z,51.92
2019-05-29T20:48:59.372Z,52.62
2019-05-29T20:51:47.542Z,43.90
2019-05-29T20:54:36.155Z,49.63
2019-05-29T20:57:25.128Z,49.08
2019-05-29T21:00:15.961Z,49.00
2019-05-29T21:03:05.577Z,46.23
2019-05-29T21:05:54.228Z,34.78
2019-05-29T21:08:43.445Z,34.05
2019-05-29T21:11:33.203Z,57.67
2019-05-29T21:14:22.262Z,44.85
2019-05-29T21:17:11.666Z,54.00
2019-05-29T21:20:00.168Z,59.33
2019-05-29T21:22:51.648Z,48.78
2019-05-29T21:25:40.729Z,41.08
2019-05-29T21:28:39.636Z,62.60
2019-05-29T21:31:20.846Z,46.90
2019-05-29T21:34:09.020Z,47.80
2019-05-29T21:37:03.282Z,62.05
2019-05-29T21:39:51.585Z,45.12
2019-05-29T21:42:40.594Z,55.83
2019-05-29T21:45:29.231Z,53.20
2019-05-29T21:48:18.093Z,64.37
2019-05-29T21:51:13.772Z,67.75
2019-05-29T21:54:02.406Z,66.22
2019-05-29T21:56:51.410Z,65.03
2019-05-29T21:59:39.731Z,57.17
2019-05-29T22:02:28.348Z,70.78
2019-05-29T22:05:17.597Z,65.60
2019-05-29T22:08:07.757Z,62.15
2019-05-29T22:10:57.510Z,65.72
2019-05-29T22:13:46.041Z,67.82
2019-05-29T22:16:34.649Z,61.18
2019-05-29T22:19:23.716Z,66.15
2019-05-29T22:22:14.140Z,66.62
2019-05-29T22:25:02.534Z,67.35
2019-05-29T22:27:51.298Z,66.35
2019-05-29T22:30:40.367Z,65.55
2019-05-29T22:33:28.741Z,66.30
2019-05-29T22:36:17.201Z,66.87
2019-05-29T22:39:06.859Z,76.20
2019-05-29T22:41:55.681Z,75.67
2019-05-29T22:44:44.390Z,69.55
2019-05-29T22:47:33.047Z,68.57
2019-05-29T22:50:21.627Z,71.40
2019-05-29T22:53:10.405Z,68.17
2019-05-29T22:55:59.936Z,63.10
2019-05-29T22:58:48.823Z,61.88
2019-05-29T23:01:37.631Z,64.85
2019-05-29T23:04:27.806Z,61.92
2019-05-29T23:07:20.253Z,58.50
2019-05-29T23:10:09.980Z,55.60
2019-05-29T23:13:02.704Z,57.43
2019-05-29T23:16:00.666Z,59.65
2019-05-29T23:18:54.321Z,61.18
2019-05-29T23:21:47.863Z,70.60
2019-05-29T23:24:46.636Z,61.53
2019-05-29T23:27:41.222Z,59.40
2019-05-29T23:30:30.812Z,58.50
2019-05-29T23:33:19.846Z,71.00
2019-05-29T23:36:08.573Z,58.50
2019-05-29T23:38:59.311Z,61.83
2019-05-29T23:41:53.237Z,69.17
2019-05-29T23:48:02.274Z,58.35
2019-05-29T23:50:55.476Z,62.60
2019-05-29T23:53:46.787Z,62.23
2019-05-29T23:56:37.716Z,66.00
2019-05-29T23:59:28.205Z,63.48
